RYR4SY EPKK-EGAA
Flight info
| Callsign | RYR4SY |
|---|---|
| Flight time | 2h 42m |
| Altitude | 40000 |
| Route | OMFOL T738 DINOV DCT NAROX DCT ZUCKA DCT SPY DCT MIMVA L602 NALAX L46 GETNO DCT REMSI DCT UVPOK M147 ROBOP M146 IPSET P6 BELZU |
| Aircraft | B38M/M-SDE1FGHILORVWXY/HB1 |
Departure
| Time | 2026-04-30 04:01 |
|---|---|
| Airport | Kraków John Paul II International Airport (EPKK) |
Arrival
| Time | 2026-04-30 06:43 |
|---|---|
| Airport | Belfast International Airport (EGAA) |
| Time | Latitude | Longitude | Altitude | Speed | Heading |
|---|---|---|---|---|---|
| 2026-04-30 03:40 | 50.07356 | 19.80241 | 800 ft | 0 kts | 168° |
| 2026-04-30 03:51 | 50.07359 | 19.80240 | 800 ft | 2 kts | 168° |
| 2026-04-30 03:52 | 50.07366 | 19.80238 | 800 ft | 1 kts | 168° |
| 2026-04-30 03:52 | 50.07381 | 19.80231 | 800 ft | 3 kts | 150° |
| 2026-04-30 03:52 | 50.07395 | 19.80211 | 800 ft | 3 kts | 123° |
| 2026-04-30 03:52 | 50.07404 | 19.80189 | 800 ft | 3 kts | 123° |
| 2026-04-30 03:53 | 50.07412 | 19.80161 | 800 ft | 3 kts | 101° |
| 2026-04-30 03:53 | 50.07412 | 19.80130 | 800 ft | 3 kts | 78° |
| 2026-04-30 03:53 | 50.07410 | 19.80112 | 800 ft | 0 kts | 79° |
| 2026-04-30 03:55 | 50.07410 | 19.80113 | 800 ft | 0 kts | 79° |
| 2026-04-30 03:55 | 50.07411 | 19.80124 | 800 ft | 2 kts | 79° |
| 2026-04-30 03:55 | 50.07416 | 19.80162 | 800 ft | 5 kts | 77° |
| 2026-04-30 03:56 | 50.07425 | 19.80225 | 800 ft | 7 kts | 77° |
| 2026-04-30 03:56 | 50.07437 | 19.80313 | 800 ft | 10 kts | 77° |
| 2026-04-30 03:56 | 50.07479 | 19.80382 | 800 ft | 9 kts | 17° |
| 2026-04-30 03:56 | 50.07549 | 19.80415 | 800 ft | 12 kts | 17° |
| 2026-04-30 03:57 | 50.07632 | 19.80405 | 800 ft | 13 kts | 348° |
| 2026-04-30 03:57 | 50.07731 | 19.80372 | 800 ft | 15 kts | 347° |
| 2026-04-30 03:57 | 50.07841 | 19.80334 | 800 ft | 17 kts | 348° |
| 2026-04-30 03:57 | 50.07959 | 19.80295 | 800 ft | 15 kts | 348° |
| 2026-04-30 03:58 | 50.08013 | 19.80245 | 800 ft | 5 kts | 270° |
| 2026-04-30 03:58 | 50.08006 | 19.80180 | 800 ft | 7 kts | 258° |
| 2026-04-30 03:58 | 50.07998 | 19.80122 | 800 ft | 2 kts | 258° |
| 2026-04-30 03:58 | 50.07997 | 19.80118 | 800 ft | 0 kts | 258° |
| 2026-04-30 04:00 | 50.07985 | 19.80026 | 800 ft | 36 kts | 258° |
| 2026-04-30 04:00 | 50.07874 | 19.79227 | 800 ft | 113 kts | 258° |
| 2026-04-30 04:00 | 50.07666 | 19.77727 | 965 ft | 157 kts | 258° |
| 2026-04-30 04:01 | 50.07431 | 19.76026 | 1677 ft | 166 kts | 258° |
| 2026-04-30 04:01 | 50.07179 | 19.74208 | 2385 ft | 176 kts | 257° |
| 2026-04-30 04:01 | 50.06913 | 19.72299 | 3028 ft | 185 kts | 258° |
| 2026-04-30 04:01 | 50.06647 | 19.70305 | 3676 ft | 194 kts | 259° |
| 2026-04-30 04:02 | 50.06368 | 19.68186 | 4371 ft | 204 kts | 259° |
| 2026-04-30 04:02 | 50.06056 | 19.65957 | 5092 ft | 215 kts | 260° |
| 2026-04-30 04:02 | 50.05732 | 19.63654 | 5799 ft | 227 kts | 260° |
| 2026-04-30 04:02 | 50.05379 | 19.61156 | 6517 ft | 243 kts | 260° |
| 2026-04-30 04:03 | 50.05006 | 19.58489 | 7262 ft | 258 kts | 260° |
| 2026-04-30 04:03 | 50.04618 | 19.55704 | 7999 ft | 273 kts | 260° |
| 2026-04-30 04:03 | 50.04201 | 19.52728 | 8744 ft | 287 kts | 260° |
| 2026-04-30 04:03 | 50.03768 | 19.49660 | 9473 ft | 299 kts | 260° |
| 2026-04-30 04:04 | 50.03376 | 19.46406 | 10202 ft | 309 kts | 268° |
| 2026-04-30 04:04 | 50.03556 | 19.43061 | 10958 ft | 312 kts | 284° |
| 2026-04-30 04:04 | 50.04114 | 19.39793 | 11694 ft | 318 kts | 291° |
| 2026-04-30 04:04 | 50.04852 | 19.36460 | 12443 ft | 331 kts | 294° |
| 2026-04-30 04:05 | 50.05685 | 19.33027 | 13209 ft | 344 kts | 295° |
| 2026-04-30 04:05 | 50.06556 | 19.29563 | 14054 ft | 352 kts | 296° |
| 2026-04-30 04:05 | 50.07475 | 19.25960 | 14915 ft | 361 kts | 296° |
| 2026-04-30 04:05 | 50.08420 | 19.22284 | 15772 ft | 367 kts | 296° |
| 2026-04-30 04:06 | 50.09375 | 19.18600 | 16620 ft | 372 kts | 296° |
| 2026-04-30 04:06 | 50.10365 | 19.14846 | 17476 ft | 375 kts | 296° |
| 2026-04-30 04:06 | 50.11346 | 19.11123 | 18318 ft | 377 kts | 297° |
| 2026-04-30 04:06 | 50.12349 | 19.07321 | 19173 ft | 377 kts | 297° |
| 2026-04-30 04:07 | 50.13332 | 19.03550 | 20019 ft | 377 kts | 297° |
| 2026-04-30 04:07 | 50.14316 | 18.99731 | 20874 ft | 376 kts | 298° |
| 2026-04-30 04:07 | 50.15277 | 18.96004 | 21712 ft | 374 kts | 298° |
| 2026-04-30 04:08 | 50.17225 | 18.88461 | 23300 ft | 377 kts | 299° |
| 2026-04-30 04:08 | 50.18243 | 18.84639 | 23935 ft | 385 kts | 300° |
| 2026-04-30 04:08 | 50.19273 | 18.80800 | 24537 ft | 392 kts | 300° |
| 2026-04-30 04:08 | 50.20345 | 18.76818 | 25147 ft | 398 kts | 300° |
| 2026-04-30 04:09 | 50.21417 | 18.72836 | 25746 ft | 403 kts | 300° |
| 2026-04-30 04:09 | 50.22512 | 18.68757 | 26351 ft | 407 kts | 300° |
| 2026-04-30 04:09 | 50.23600 | 18.64692 | 26949 ft | 410 kts | 300° |
| 2026-04-30 04:09 | 50.24709 | 18.60526 | 27556 ft | 413 kts | 300° |
| 2026-04-30 04:10 | 50.25806 | 18.56387 | 28155 ft | 414 kts | 300° |
| 2026-04-30 04:10 | 50.26895 | 18.52256 | 28750 ft | 416 kts | 300° |
| 2026-04-30 04:10 | 50.28008 | 18.48019 | 29356 ft | 419 kts | 300° |
| 2026-04-30 04:10 | 50.29114 | 18.43790 | 29957 ft | 421 kts | 300° |
| 2026-04-30 04:11 | 50.30210 | 18.39577 | 30552 ft | 423 kts | 300° |
| 2026-04-30 04:11 | 50.31317 | 18.35309 | 31183 ft | 423 kts | 300° |
| 2026-04-30 04:11 | 50.32425 | 18.31045 | 31888 ft | 421 kts | 300° |
| 2026-04-30 04:11 | 50.33529 | 18.26793 | 32521 ft | 421 kts | 300° |
| 2026-04-30 04:12 | 50.34637 | 18.22526 | 32988 ft | 425 kts | 299° |
| 2026-04-30 04:12 | 50.35742 | 18.18204 | 33422 ft | 428 kts | 299° |
| 2026-04-30 04:12 | 50.36837 | 18.13886 | 33846 ft | 431 kts | 299° |
| 2026-04-30 04:12 | 50.37950 | 18.09484 | 34275 ft | 434 kts | 298° |
| 2026-04-30 04:13 | 50.39067 | 18.05071 | 34702 ft | 435 kts | 298° |
| 2026-04-30 04:13 | 50.40179 | 18.00703 | 35124 ft | 436 kts | 298° |
| 2026-04-30 04:13 | 50.41314 | 17.96276 | 35550 ft | 437 kts | 298° |
| 2026-04-30 04:13 | 50.42454 | 17.91849 | 35976 ft | 437 kts | 298° |
| 2026-04-30 04:14 | 50.43625 | 17.87439 | 36404 ft | 436 kts | 299° |
| 2026-04-30 04:14 | 50.44822 | 17.83116 | 36747 ft | 437 kts | 300° |
| 2026-04-30 04:14 | 50.46056 | 17.78727 | 37018 ft | 439 kts | 300° |
| 2026-04-30 04:14 | 50.47297 | 17.74313 | 37277 ft | 442 kts | 300° |
| 2026-04-30 04:15 | 50.48534 | 17.69923 | 37531 ft | 444 kts | 300° |
| 2026-04-30 04:15 | 50.49793 | 17.65460 | 37785 ft | 446 kts | 299° |
| 2026-04-30 04:15 | 50.51046 | 17.61040 | 38030 ft | 448 kts | 299° |
| 2026-04-30 04:15 | 50.52325 | 17.56542 | 38282 ft | 448 kts | 299° |
| 2026-04-30 04:16 | 50.53592 | 17.52103 | 38531 ft | 447 kts | 299° |
| 2026-04-30 04:16 | 50.54875 | 17.47618 | 38785 ft | 447 kts | 299° |
| 2026-04-30 04:16 | 50.56142 | 17.43151 | 39034 ft | 446 kts | 299° |
| 2026-04-30 04:16 | 50.57380 | 17.38738 | 39280 ft | 445 kts | 298° |
| 2026-04-30 04:17 | 50.58634 | 17.34246 | 39537 ft | 444 kts | 298° |
| 2026-04-30 04:17 | 50.59863 | 17.29842 | 39785 ft | 443 kts | 298° |
| 2026-04-30 04:17 | 50.61101 | 17.25409 | 40031 ft | 442 kts | 298° |
| 2026-04-30 04:17 | 50.62335 | 17.21007 | 40274 ft | 441 kts | 298° |
| 2026-04-30 04:18 | 50.63586 | 17.16559 | 40424 ft | 443 kts | 298° |
| 2026-04-30 04:18 | 50.66126 | 17.07675 | 40546 ft | 447 kts | 299° |
| 2026-04-30 04:19 | 50.68730 | 16.98732 | 40546 ft | 448 kts | 299° |
| 2026-04-30 04:19 | 50.71268 | 16.89851 | 40547 ft | 445 kts | 298° |
| 2026-04-30 04:20 | 50.73787 | 16.80959 | 40547 ft | 443 kts | 298° |
| 2026-04-30 04:20 | 50.76245 | 16.72013 | 40549 ft | 442 kts | 297° |
| 2026-04-30 04:21 | 50.78656 | 16.63074 | 40548 ft | 441 kts | 297° |
| 2026-04-30 04:21 | 50.81038 | 16.54147 | 40549 ft | 441 kts | 297° |
| 2026-04-30 04:22 | 50.83404 | 16.45243 | 40549 ft | 441 kts | 297° |
| 2026-04-30 04:22 | 50.85780 | 16.36281 | 40548 ft | 440 kts | 297° |
| 2026-04-30 04:23 | 50.88137 | 16.27372 | 40547 ft | 440 kts | 297° |
| 2026-04-30 04:23 | 50.90460 | 16.18404 | 40545 ft | 441 kts | 297° |
| 2026-04-30 04:24 | 50.92783 | 16.09411 | 40544 ft | 441 kts | 297° |
| 2026-04-30 04:24 | 50.95113 | 16.00458 | 40545 ft | 441 kts | 297° |
| 2026-04-30 04:25 | 50.97450 | 15.91474 | 40544 ft | 441 kts | 297° |
| 2026-04-30 04:25 | 50.99788 | 15.82478 | 40543 ft | 441 kts | 297° |
| 2026-04-30 04:26 | 51.02131 | 15.73434 | 40542 ft | 441 kts | 297° |
| 2026-04-30 04:26 | 51.04452 | 15.64417 | 40538 ft | 442 kts | 297° |
| 2026-04-30 04:27 | 51.06770 | 15.55390 | 40538 ft | 441 kts | 297° |
| 2026-04-30 04:27 | 51.09091 | 15.46327 | 40541 ft | 442 kts | 297° |
| 2026-04-30 04:28 | 51.11385 | 15.37328 | 40540 ft | 442 kts | 297° |
| 2026-04-30 04:28 | 51.13695 | 15.28225 | 40539 ft | 442 kts | 297° |
| 2026-04-30 04:29 | 51.15945 | 15.19119 | 40538 ft | 442 kts | 296° |
| 2026-04-30 04:29 | 51.18138 | 15.09997 | 40542 ft | 444 kts | 294° |
| 2026-04-30 04:30 | 51.19864 | 15.00494 | 40616 ft | 447 kts | 289° |
| 2026-04-30 04:30 | 51.21283 | 14.90765 | 40560 ft | 450 kts | 287° |
| 2026-04-30 04:31 | 51.22602 | 14.81040 | 40550 ft | 450 kts | 287° |
| 2026-04-30 04:31 | 51.23887 | 14.71320 | 40551 ft | 450 kts | 287° |
| 2026-04-30 04:32 | 51.25164 | 14.61529 | 40553 ft | 450 kts | 287° |
| 2026-04-30 04:32 | 51.26436 | 14.51712 | 40552 ft | 451 kts | 287° |
| 2026-04-30 04:33 | 51.27688 | 14.41953 | 40550 ft | 450 kts | 287° |
| 2026-04-30 04:33 | 51.28938 | 14.32123 | 40550 ft | 450 kts | 287° |
| 2026-04-30 04:34 | 51.30175 | 14.22289 | 40552 ft | 450 kts | 287° |
| 2026-04-30 04:34 | 51.31402 | 14.12505 | 40554 ft | 451 kts | 287° |
| 2026-04-30 04:35 | 51.32629 | 14.02694 | 40551 ft | 451 kts | 287° |
| 2026-04-30 04:35 | 51.33859 | 13.92854 | 40553 ft | 451 kts | 287° |
| 2026-04-30 04:36 | 51.35090 | 13.82965 | 40555 ft | 452 kts | 287° |
| 2026-04-30 04:36 | 51.36256 | 13.73122 | 40553 ft | 452 kts | 286° |
| 2026-04-30 04:37 | 51.37392 | 13.63198 | 40553 ft | 452 kts | 285° |
| 2026-04-30 04:37 | 51.38330 | 13.54929 | 40554 ft | 452 kts | 285° |
| 2026-04-30 04:38 | 51.39444 | 13.45051 | 40554 ft | 452 kts | 285° |
| 2026-04-30 04:38 | 51.40566 | 13.35108 | 40556 ft | 453 kts | 285° |
| 2026-04-30 04:39 | 51.41693 | 13.25156 | 40553 ft | 453 kts | 285° |
| 2026-04-30 04:39 | 51.42835 | 13.15267 | 40554 ft | 452 kts | 286° |
| 2026-04-30 04:40 | 51.44030 | 13.05393 | 40554 ft | 452 kts | 286° |
| 2026-04-30 04:40 | 51.45238 | 12.95544 | 40553 ft | 452 kts | 286° |
| 2026-04-30 04:41 | 51.46454 | 12.85638 | 40554 ft | 452 kts | 286° |
| 2026-04-30 04:41 | 51.47652 | 12.75773 | 40554 ft | 452 kts | 286° |
| 2026-04-30 04:42 | 51.48799 | 12.65835 | 40554 ft | 452 kts | 285° |
| 2026-04-30 04:42 | 51.49914 | 12.55933 | 40554 ft | 452 kts | 285° |
| 2026-04-30 04:43 | 51.51018 | 12.46005 | 40554 ft | 452 kts | 285° |
| 2026-04-30 04:43 | 51.52118 | 12.36021 | 40554 ft | 453 kts | 285° |
| 2026-04-30 04:44 | 51.53201 | 12.26101 | 40554 ft | 453 kts | 285° |
| 2026-04-30 04:44 | 51.54285 | 12.16106 | 40553 ft | 453 kts | 285° |
| 2026-04-30 04:45 | 51.55364 | 12.06127 | 40553 ft | 453 kts | 285° |
| 2026-04-30 04:45 | 51.56438 | 11.96162 | 40553 ft | 453 kts | 285° |
| 2026-04-30 04:46 | 51.57503 | 11.86241 | 40552 ft | 452 kts | 285° |
| 2026-04-30 04:46 | 51.58575 | 11.76233 | 40552 ft | 452 kts | 285° |
| 2026-04-30 04:47 | 51.59639 | 11.66270 | 40552 ft | 453 kts | 285° |
| 2026-04-30 04:47 | 51.60703 | 11.56291 | 40552 ft | 453 kts | 285° |
| 2026-04-30 04:48 | 51.61726 | 11.46301 | 40552 ft | 453 kts | 284° |
| 2026-04-30 04:48 | 51.62712 | 11.36260 | 40552 ft | 453 kts | 284° |
| 2026-04-30 04:49 | 51.63687 | 11.26265 | 40552 ft | 453 kts | 284° |
| 2026-04-30 04:49 | 51.64673 | 11.16211 | 40551 ft | 453 kts | 284° |
| 2026-04-30 04:50 | 51.65657 | 11.06217 | 40551 ft | 453 kts | 284° |
| 2026-04-30 04:50 | 51.66719 | 10.96181 | 40552 ft | 452 kts | 286° |
| 2026-04-30 04:51 | 51.68130 | 10.86376 | 40547 ft | 450 kts | 289° |
| 2026-04-30 04:51 | 51.69680 | 10.76640 | 40544 ft | 450 kts | 289° |
| 2026-04-30 04:52 | 51.71279 | 10.66883 | 40542 ft | 450 kts | 289° |
| 2026-04-30 04:52 | 51.72883 | 10.57177 | 40540 ft | 449 kts | 290° |
| 2026-04-30 04:53 | 51.74502 | 10.47390 | 40536 ft | 449 kts | 290° |
| 2026-04-30 04:53 | 51.76106 | 10.37680 | 40535 ft | 449 kts | 290° |
| 2026-04-30 04:54 | 51.77710 | 10.27943 | 40534 ft | 449 kts | 289° |
| 2026-04-30 04:54 | 51.79317 | 10.18169 | 40533 ft | 449 kts | 289° |
| 2026-04-30 04:55 | 51.80913 | 10.08432 | 40533 ft | 449 kts | 289° |
| 2026-04-30 04:55 | 51.82502 | 9.98720 | 40532 ft | 449 kts | 289° |
| 2026-04-30 04:56 | 51.84080 | 9.88923 | 40529 ft | 449 kts | 289° |
| 2026-04-30 04:56 | 51.85589 | 9.79154 | 40528 ft | 449 kts | 289° |
| 2026-04-30 04:57 | 51.87113 | 9.69311 | 40528 ft | 449 kts | 289° |
| 2026-04-30 04:57 | 51.88680 | 9.59562 | 40523 ft | 449 kts | 289° |
| 2026-04-30 04:58 | 51.90266 | 9.49798 | 40523 ft | 449 kts | 289° |
| 2026-04-30 04:58 | 51.91861 | 9.39989 | 40522 ft | 449 kts | 289° |
| 2026-04-30 04:59 | 51.93446 | 9.30232 | 40510 ft | 450 kts | 289° |
| 2026-04-30 04:59 | 51.95046 | 9.20412 | 40511 ft | 449 kts | 289° |
| 2026-04-30 05:00 | 51.96627 | 9.10630 | 40514 ft | 450 kts | 289° |
| 2026-04-30 05:00 | 51.98167 | 9.00752 | 40514 ft | 450 kts | 288° |
| 2026-04-30 05:01 | 51.99676 | 8.90935 | 40514 ft | 451 kts | 288° |
| 2026-04-30 05:01 | 52.01186 | 8.81085 | 40514 ft | 451 kts | 288° |
| 2026-04-30 05:02 | 52.02705 | 8.71192 | 40513 ft | 450 kts | 288° |
| 2026-04-30 05:02 | 52.04217 | 8.61335 | 40513 ft | 450 kts | 288° |
| 2026-04-30 05:03 | 52.05729 | 8.51467 | 40510 ft | 450 kts | 288° |
| 2026-04-30 05:03 | 52.07215 | 8.41590 | 40509 ft | 451 kts | 287° |
| 2026-04-30 05:04 | 52.08662 | 8.31623 | 40507 ft | 451 kts | 287° |
| 2026-04-30 05:04 | 52.10081 | 8.21733 | 40499 ft | 451 kts | 287° |
| 2026-04-30 05:05 | 52.11499 | 8.11808 | 40498 ft | 452 kts | 287° |
| 2026-04-30 05:05 | 52.12924 | 8.01810 | 40500 ft | 452 kts | 287° |
| 2026-04-30 05:06 | 52.15046 | 7.86869 | 40498 ft | 452 kts | 287° |
| 2026-04-30 05:06 | 52.16455 | 7.76913 | 40496 ft | 452 kts | 287° |
| 2026-04-30 05:07 | 52.17867 | 7.66916 | 40496 ft | 452 kts | 287° |
| 2026-04-30 05:07 | 52.19274 | 7.56966 | 40496 ft | 452 kts | 287° |
| 2026-04-30 05:08 | 52.20684 | 7.46996 | 40497 ft | 452 kts | 287° |
| 2026-04-30 05:08 | 52.22078 | 7.36961 | 40499 ft | 452 kts | 286° |
| 2026-04-30 05:09 | 52.23413 | 7.26962 | 40500 ft | 452 kts | 285° |
| 2026-04-30 05:09 | 52.24735 | 7.16943 | 40501 ft | 452 kts | 285° |
| 2026-04-30 05:10 | 52.26058 | 7.06932 | 40503 ft | 453 kts | 285° |
| 2026-04-30 05:10 | 52.27389 | 6.96875 | 40504 ft | 453 kts | 285° |
| 2026-04-30 05:11 | 52.28723 | 6.86846 | 40502 ft | 453 kts | 285° |
| 2026-04-30 05:11 | 52.30069 | 6.76745 | 40500 ft | 453 kts | 285° |
| 2026-04-30 05:12 | 52.31383 | 6.66691 | 40500 ft | 454 kts | 285° |
| 2026-04-30 05:12 | 52.32714 | 6.56588 | 40492 ft | 454 kts | 285° |
| 2026-04-30 05:13 | 52.34059 | 6.46527 | 40475 ft | 454 kts | 285° |
| 2026-04-30 05:13 | 52.35415 | 6.36442 | 40472 ft | 454 kts | 285° |
| 2026-04-30 05:14 | 52.36784 | 6.26315 | 40471 ft | 455 kts | 285° |
| 2026-04-30 05:14 | 52.38143 | 6.16220 | 40470 ft | 455 kts | 285° |
| 2026-04-30 05:15 | 52.39492 | 6.06155 | 40468 ft | 455 kts | 285° |
| 2026-04-30 05:15 | 52.40801 | 5.95979 | 40467 ft | 456 kts | 284° |
| 2026-04-30 05:16 | 52.42074 | 5.85823 | 40467 ft | 456 kts | 284° |
| 2026-04-30 05:16 | 52.43345 | 5.75608 | 40466 ft | 456 kts | 284° |
| 2026-04-30 05:17 | 52.44612 | 5.65445 | 40466 ft | 456 kts | 284° |
| 2026-04-30 05:17 | 52.45879 | 5.55269 | 40465 ft | 456 kts | 284° |
| 2026-04-30 05:18 | 52.47142 | 5.45042 | 40465 ft | 456 kts | 283° |
| 2026-04-30 05:18 | 52.48335 | 5.34857 | 40465 ft | 457 kts | 283° |
| 2026-04-30 05:19 | 52.49512 | 5.24627 | 40463 ft | 457 kts | 283° |
| 2026-04-30 05:19 | 52.50695 | 5.14358 | 40460 ft | 457 kts | 283° |
| 2026-04-30 05:20 | 52.51871 | 5.04176 | 40456 ft | 457 kts | 283° |
| 2026-04-30 05:20 | 52.53114 | 4.93919 | 40454 ft | 455 kts | 288° |
| 2026-04-30 05:21 | 52.55454 | 4.84368 | 40459 ft | 451 kts | 299° |
| 2026-04-30 05:21 | 52.58474 | 4.75268 | 40454 ft | 451 kts | 302° |
| 2026-04-30 05:22 | 52.61653 | 4.66391 | 40447 ft | 451 kts | 303° |
| 2026-04-30 05:22 | 52.64850 | 4.57562 | 40449 ft | 451 kts | 303° |
| 2026-04-30 05:23 | 52.68033 | 4.48646 | 40451 ft | 451 kts | 303° |
| 2026-04-30 05:23 | 52.71194 | 4.39746 | 40452 ft | 451 kts | 303° |
| 2026-04-30 05:24 | 52.74368 | 4.30793 | 40452 ft | 451 kts | 302° |
| 2026-04-30 05:24 | 52.77529 | 4.21882 | 40452 ft | 451 kts | 302° |
| 2026-04-30 05:25 | 52.80712 | 4.12900 | 40451 ft | 451 kts | 302° |
| 2026-04-30 05:25 | 52.83343 | 4.05462 | 40450 ft | 451 kts | 302° |
| 2026-04-30 05:26 | 52.87035 | 3.94989 | 40450 ft | 452 kts | 302° |
| 2026-04-30 05:26 | 52.89695 | 3.87512 | 40451 ft | 452 kts | 302° |
| 2026-04-30 05:27 | 52.92941 | 3.78607 | 40454 ft | 452 kts | 303° |
| 2026-04-30 05:27 | 52.96203 | 3.69708 | 40459 ft | 452 kts | 303° |
| 2026-04-30 05:28 | 52.99444 | 3.60697 | 40453 ft | 453 kts | 302° |
| 2026-04-30 05:28 | 53.02651 | 3.51732 | 40447 ft | 453 kts | 302° |
| 2026-04-30 05:29 | 53.05867 | 3.42708 | 40446 ft | 453 kts | 302° |
| 2026-04-30 05:29 | 53.08666 | 3.33355 | 40446 ft | 454 kts | 292° |
| 2026-04-30 05:30 | 53.10589 | 3.23286 | 40444 ft | 455 kts | 286° |
| 2026-04-30 05:30 | 53.12171 | 3.13122 | 40437 ft | 456 kts | 285° |
| 2026-04-30 05:31 | 53.13645 | 3.02835 | 40435 ft | 456 kts | 283° |
| 2026-04-30 05:31 | 53.15036 | 2.92571 | 40435 ft | 456 kts | 283° |
| 2026-04-30 05:32 | 53.16416 | 2.82231 | 40432 ft | 456 kts | 283° |
| 2026-04-30 05:32 | 53.17786 | 2.71962 | 40429 ft | 456 kts | 283° |
| 2026-04-30 05:33 | 53.19130 | 2.61590 | 40427 ft | 456 kts | 282° |
| 2026-04-30 05:33 | 53.20423 | 2.51260 | 40424 ft | 456 kts | 282° |
| 2026-04-30 05:34 | 53.21705 | 2.40918 | 40420 ft | 456 kts | 282° |
| 2026-04-30 05:34 | 53.22991 | 2.30532 | 40430 ft | 456 kts | 282° |
| 2026-04-30 05:35 | 53.24267 | 2.20207 | 40429 ft | 456 kts | 282° |
| 2026-04-30 05:35 | 53.25554 | 2.09788 | 40427 ft | 456 kts | 282° |
| 2026-04-30 05:36 | 53.26829 | 1.99451 | 40424 ft | 456 kts | 282° |
| 2026-04-30 05:36 | 53.28095 | 1.89027 | 40421 ft | 456 kts | 281° |
| 2026-04-30 05:37 | 53.29324 | 1.78609 | 40418 ft | 456 kts | 281° |
| 2026-04-30 05:37 | 53.30535 | 1.68249 | 40415 ft | 456 kts | 281° |
| 2026-04-30 05:38 | 53.31796 | 1.57842 | 40413 ft | 456 kts | 282° |
| 2026-04-30 05:38 | 53.33172 | 1.47430 | 40411 ft | 456 kts | 282° |
| 2026-04-30 05:39 | 53.34575 | 1.37114 | 40409 ft | 456 kts | 282° |
| 2026-04-30 05:39 | 53.36002 | 1.26730 | 40407 ft | 456 kts | 283° |
| 2026-04-30 05:40 | 53.37486 | 1.16406 | 40389 ft | 456 kts | 283° |
| 2026-04-30 05:40 | 53.39004 | 1.06125 | 40387 ft | 456 kts | 283° |
| 2026-04-30 05:41 | 53.40545 | 0.95773 | 40387 ft | 456 kts | 283° |
| 2026-04-30 05:41 | 53.42083 | 0.85475 | 40387 ft | 456 kts | 283° |
| 2026-04-30 05:42 | 53.43565 | 0.75187 | 40388 ft | 456 kts | 282° |
| 2026-04-30 05:42 | 53.45030 | 0.64801 | 40394 ft | 456 kts | 282° |
| 2026-04-30 05:43 | 53.46474 | 0.54489 | 40394 ft | 456 kts | 282° |
| 2026-04-30 05:43 | 53.47895 | 0.44087 | 40391 ft | 455 kts | 282° |
| 2026-04-30 05:44 | 53.49288 | 0.33748 | 40392 ft | 455 kts | 281° |
| 2026-04-30 05:44 | 53.50659 | 0.23344 | 40392 ft | 455 kts | 281° |
| 2026-04-30 05:45 | 53.51987 | 0.13209 | 40395 ft | 455 kts | 281° |
| 2026-04-30 05:45 | 53.53378 | 0.02571 | 40398 ft | 455 kts | 281° |
| 2026-04-30 05:46 | 53.54740 | -0.07784 | 40400 ft | 455 kts | 281° |
| 2026-04-30 05:46 | 53.56129 | -0.18169 | 40404 ft | 456 kts | 280° |
| 2026-04-30 05:47 | 53.57474 | -0.28631 | 40406 ft | 457 kts | 280° |
| 2026-04-30 05:47 | 53.58788 | -0.39066 | 40406 ft | 457 kts | 280° |
| 2026-04-30 05:48 | 53.60102 | -0.49589 | 40406 ft | 457 kts | 279° |
| 2026-04-30 05:48 | 53.61398 | -0.60026 | 40405 ft | 458 kts | 279° |
| 2026-04-30 05:49 | 53.62733 | -0.70482 | 40402 ft | 458 kts | 280° |
| 2026-04-30 05:49 | 53.64099 | -0.81012 | 40372 ft | 458 kts | 280° |
| 2026-04-30 05:50 | 53.65407 | -0.91477 | 40348 ft | 458 kts | 279° |
| 2026-04-30 05:50 | 53.66707 | -1.02014 | 40318 ft | 458 kts | 279° |
| 2026-04-30 05:51 | 53.67995 | -1.12484 | 40306 ft | 457 kts | 279° |
| 2026-04-30 05:51 | 53.69291 | -1.23032 | 40302 ft | 458 kts | 279° |
| 2026-04-30 05:52 | 53.70612 | -1.33500 | 40309 ft | 457 kts | 279° |
| 2026-04-30 05:52 | 53.71912 | -1.44040 | 40327 ft | 457 kts | 279° |
| 2026-04-30 05:53 | 53.73168 | -1.54537 | 40345 ft | 457 kts | 279° |
| 2026-04-30 05:53 | 53.74361 | -1.65069 | 40356 ft | 457 kts | 278° |
| 2026-04-30 05:54 | 53.75530 | -1.75598 | 40357 ft | 457 kts | 278° |
| 2026-04-30 05:54 | 53.76698 | -1.86199 | 40354 ft | 457 kts | 278° |
| 2026-04-30 05:55 | 53.77851 | -1.96726 | 40349 ft | 457 kts | 278° |
| 2026-04-30 05:55 | 53.79001 | -2.07266 | 40344 ft | 457 kts | 278° |
| 2026-04-30 05:56 | 53.80151 | -2.17851 | 40340 ft | 457 kts | 278° |
| 2026-04-30 05:56 | 53.81289 | -2.28379 | 40338 ft | 457 kts | 278° |
| 2026-04-30 05:57 | 53.82419 | -2.38971 | 40356 ft | 456 kts | 277° |
| 2026-04-30 05:57 | 53.83484 | -2.49594 | 40355 ft | 456 kts | 277° |
| 2026-04-30 05:58 | 53.84516 | -2.60180 | 40351 ft | 456 kts | 277° |
| 2026-04-30 05:58 | 53.85538 | -2.70774 | 40349 ft | 456 kts | 277° |
| 2026-04-30 05:59 | 53.86558 | -2.81411 | 40348 ft | 456 kts | 277° |
| 2026-04-30 05:59 | 53.87573 | -2.92003 | 40347 ft | 457 kts | 277° |
| 2026-04-30 06:00 | 53.88596 | -3.02651 | 40347 ft | 457 kts | 277° |
| 2026-04-30 06:00 | 53.89614 | -3.13248 | 40346 ft | 457 kts | 277° |
| 2026-04-30 06:01 | 53.90627 | -3.23840 | 40345 ft | 457 kts | 276° |
| 2026-04-30 06:01 | 53.91594 | -3.34551 | 40152 ft | 461 kts | 276° |
| 2026-04-30 06:02 | 53.92062 | -3.39908 | 39692 ft | 464 kts | 275° |
| 2026-04-30 06:02 | 53.92538 | -3.45337 | 39199 ft | 465 kts | 275° |
| 2026-04-30 06:02 | 53.93020 | -3.50767 | 38699 ft | 465 kts | 275° |
| 2026-04-30 06:02 | 53.93513 | -3.56202 | 38166 ft | 464 kts | 276° |
| 2026-04-30 06:03 | 53.94026 | -3.61623 | 37618 ft | 463 kts | 276° |
| 2026-04-30 06:03 | 53.94542 | -3.66930 | 37075 ft | 460 kts | 276° |
| 2026-04-30 06:03 | 53.95070 | -3.72326 | 36519 ft | 456 kts | 276° |
| 2026-04-30 06:03 | 53.95582 | -3.77553 | 35976 ft | 452 kts | 276° |
| 2026-04-30 06:04 | 53.96093 | -3.82810 | 35424 ft | 447 kts | 276° |
| 2026-04-30 06:04 | 53.96596 | -3.88021 | 34871 ft | 442 kts | 276° |
| 2026-04-30 06:04 | 53.97083 | -3.93102 | 34325 ft | 438 kts | 275° |
| 2026-04-30 06:05 | 53.98022 | -4.03258 | 33218 ft | 429 kts | 275° |
| 2026-04-30 06:05 | 53.98450 | -4.08226 | 32670 ft | 426 kts | 275° |
| 2026-04-30 06:05 | 53.98943 | -4.13204 | 32116 ft | 425 kts | 281° |
| 2026-04-30 06:05 | 53.99863 | -4.17905 | 31582 ft | 425 kts | 290° |
| 2026-04-30 06:06 | 54.01104 | -4.22467 | 31040 ft | 424 kts | 295° |
| 2026-04-30 06:06 | 54.02518 | -4.26881 | 30493 ft | 422 kts | 298° |
| 2026-04-30 06:06 | 54.04009 | -4.31137 | 29950 ft | 420 kts | 300° |
| 2026-04-30 06:06 | 54.05562 | -4.35349 | 29399 ft | 418 kts | 301° |
| 2026-04-30 06:07 | 54.07163 | -4.39472 | 28849 ft | 415 kts | 303° |
| 2026-04-30 06:07 | 54.08792 | -4.43525 | 28298 ft | 413 kts | 303° |
| 2026-04-30 06:07 | 54.10432 | -4.47532 | 27746 ft | 410 kts | 303° |
| 2026-04-30 06:07 | 54.12051 | -4.51448 | 27201 ft | 407 kts | 304° |
| 2026-04-30 06:08 | 54.13681 | -4.55390 | 26649 ft | 404 kts | 303° |
| 2026-04-30 06:08 | 54.15300 | -4.59311 | 26096 ft | 401 kts | 303° |
| 2026-04-30 06:08 | 54.16902 | -4.63205 | 25543 ft | 398 kts | 303° |
| 2026-04-30 06:08 | 54.18466 | -4.67033 | 24998 ft | 395 kts | 303° |
| 2026-04-30 06:09 | 54.20040 | -4.70894 | 24444 ft | 393 kts | 303° |
| 2026-04-30 06:09 | 54.21599 | -4.74711 | 23892 ft | 390 kts | 303° |
| 2026-04-30 06:09 | 54.23148 | -4.78502 | 23341 ft | 387 kts | 303° |
| 2026-04-30 06:09 | 54.24685 | -4.82262 | 22790 ft | 384 kts | 303° |
| 2026-04-30 06:10 | 54.26200 | -4.85964 | 22244 ft | 381 kts | 303° |
| 2026-04-30 06:10 | 54.27721 | -4.89678 | 21691 ft | 378 kts | 303° |
| 2026-04-30 06:10 | 54.29227 | -4.93359 | 21140 ft | 375 kts | 303° |
| 2026-04-30 06:10 | 54.30706 | -4.96977 | 20593 ft | 372 kts | 302° |
| 2026-04-30 06:11 | 54.32177 | -5.00631 | 20040 ft | 370 kts | 302° |
| 2026-04-30 06:11 | 54.33612 | -5.04229 | 19494 ft | 367 kts | 302° |
| 2026-04-30 06:11 | 54.35048 | -5.07843 | 18941 ft | 364 kts | 302° |
| 2026-04-30 06:11 | 54.36473 | -5.11434 | 18389 ft | 361 kts | 302° |
| 2026-04-30 06:12 | 54.37867 | -5.14942 | 17844 ft | 359 kts | 302° |
| 2026-04-30 06:12 | 54.39273 | -5.18478 | 17292 ft | 356 kts | 302° |
| 2026-04-30 06:12 | 54.40664 | -5.21988 | 16740 ft | 353 kts | 302° |
| 2026-04-30 06:12 | 54.41579 | -5.24306 | 16374 ft | 352 kts | 302° |
| 2026-04-30 06:13 | 54.43439 | -5.28855 | 15643 ft | 349 kts | 305° |
| 2026-04-30 06:13 | 54.44453 | -5.31062 | 15272 ft | 348 kts | 307° |
| 2026-04-30 06:13 | 54.45992 | -5.34204 | 14728 ft | 345 kts | 309° |
| 2026-04-30 06:13 | 54.47577 | -5.37314 | 14175 ft | 343 kts | 310° |
| 2026-04-30 06:14 | 54.49153 | -5.40377 | 13622 ft | 340 kts | 308° |
| 2026-04-30 06:14 | 54.50402 | -5.43798 | 13077 ft | 335 kts | 295° |
| 2026-04-30 06:14 | 54.51356 | -5.47440 | 12533 ft | 332 kts | 290° |
| 2026-04-30 06:14 | 54.52159 | -5.51088 | 11992 ft | 329 kts | 287° |
| 2026-04-30 06:15 | 54.52912 | -5.54805 | 11442 ft | 326 kts | 286° |
| 2026-04-30 06:15 | 54.53642 | -5.58504 | 10887 ft | 323 kts | 287° |
| 2026-04-30 06:15 | 54.54371 | -5.62103 | 10342 ft | 320 kts | 287° |
| 2026-04-30 06:15 | 54.55112 | -5.65721 | 9789 ft | 317 kts | 287° |
| 2026-04-30 06:16 | 54.55840 | -5.69292 | 9237 ft | 313 kts | 288° |
| 2026-04-30 06:16 | 54.56548 | -5.72790 | 8691 ft | 310 kts | 287° |
| 2026-04-30 06:16 | 54.57252 | -5.76291 | 8140 ft | 307 kts | 287° |
| 2026-04-30 06:16 | 54.57952 | -5.79767 | 7588 ft | 304 kts | 287° |
| 2026-04-30 06:17 | 54.58633 | -5.83210 | 7038 ft | 302 kts | 286° |
| 2026-04-30 06:17 | 54.59292 | -5.86587 | 6492 ft | 299 kts | 286° |
| 2026-04-30 06:17 | 54.59939 | -5.89910 | 6347 ft | 287 kts | 286° |
| 2026-04-30 06:17 | 54.60580 | -5.93183 | 6326 ft | 287 kts | 286° |
| 2026-04-30 06:18 | 54.61224 | -5.96470 | 6315 ft | 289 kts | 286° |
| 2026-04-30 06:18 | 54.61856 | -5.99733 | 6315 ft | 291 kts | 285° |
| 2026-04-30 06:18 | 54.62483 | -6.03061 | 6313 ft | 292 kts | 285° |
| 2026-04-30 06:18 | 54.63107 | -6.06408 | 6303 ft | 292 kts | 285° |
| 2026-04-30 06:19 | 54.63731 | -6.09757 | 6298 ft | 292 kts | 285° |
| 2026-04-30 06:19 | 54.64350 | -6.13096 | 6296 ft | 292 kts | 285° |
| 2026-04-30 06:19 | 54.64961 | -6.16410 | 6289 ft | 292 kts | 284° |
| 2026-04-30 06:19 | 54.65381 | -6.19835 | 6294 ft | 290 kts | 275° |
| 2026-04-30 06:20 | 54.65558 | -6.23310 | 6295 ft | 289 kts | 270° |
| 2026-04-30 06:20 | 54.65640 | -6.26784 | 6298 ft | 288 kts | 268° |
| 2026-04-30 06:20 | 54.65688 | -6.30200 | 6287 ft | 288 kts | 267° |
| 2026-04-30 06:20 | 54.65710 | -6.33654 | 6288 ft | 287 kts | 266° |
| 2026-04-30 06:21 | 54.65715 | -6.37102 | 6288 ft | 287 kts | 266° |
| 2026-04-30 06:21 | 54.65715 | -6.40572 | 6287 ft | 287 kts | 266° |
| 2026-04-30 06:21 | 54.65712 | -6.43992 | 6286 ft | 287 kts | 266° |
| 2026-04-30 06:21 | 54.65708 | -6.47419 | 6286 ft | 287 kts | 266° |
| 2026-04-30 06:22 | 54.65600 | -6.50855 | 6272 ft | 283 kts | 255° |
| 2026-04-30 06:22 | 54.64831 | -6.53902 | 6285 ft | 273 kts | 230° |
| 2026-04-30 06:22 | 54.63463 | -6.56025 | 6288 ft | 264 kts | 205° |
| 2026-04-30 06:22 | 54.61748 | -6.56905 | 6296 ft | 255 kts | 180° |
| 2026-04-30 06:23 | 54.60030 | -6.56393 | 6291 ft | 249 kts | 155° |
| 2026-04-30 06:23 | 54.58655 | -6.54612 | 6290 ft | 248 kts | 130° |
| 2026-04-30 06:23 | 54.57906 | -6.51945 | 6286 ft | 251 kts | 105° |
| 2026-04-30 06:23 | 54.57922 | -6.48952 | 6294 ft | 258 kts | 83° |
| 2026-04-30 06:24 | 54.58501 | -6.45990 | 6295 ft | 263 kts | 72° |
| 2026-04-30 06:24 | 54.59297 | -6.43148 | 6288 ft | 263 kts | 68° |
| 2026-04-30 06:24 | 54.60175 | -6.40381 | 6286 ft | 263 kts | 66° |
| 2026-04-30 06:24 | 54.61080 | -6.37642 | 6286 ft | 262 kts | 65° |
| 2026-04-30 06:25 | 54.61995 | -6.34912 | 6286 ft | 262 kts | 65° |
| 2026-04-30 06:25 | 54.62902 | -6.32225 | 6289 ft | 262 kts | 65° |
| 2026-04-30 06:25 | 54.63837 | -6.29515 | 6289 ft | 262 kts | 64° |
| 2026-04-30 06:25 | 54.64777 | -6.26823 | 6291 ft | 262 kts | 64° |
| 2026-04-30 06:26 | 54.65725 | -6.24110 | 6289 ft | 262 kts | 64° |
| 2026-04-30 06:26 | 54.66656 | -6.21440 | 6291 ft | 262 kts | 64° |
| 2026-04-30 06:26 | 54.67596 | -6.18735 | 6289 ft | 262 kts | 64° |
| 2026-04-30 06:26 | 54.68539 | -6.16026 | 6289 ft | 262 kts | 64° |
| 2026-04-30 06:27 | 54.69483 | -6.13307 | 6290 ft | 263 kts | 64° |
| 2026-04-30 06:27 | 54.70413 | -6.10629 | 6294 ft | 263 kts | 64° |
| 2026-04-30 06:27 | 54.71353 | -6.07916 | 6296 ft | 263 kts | 64° |
| 2026-04-30 06:27 | 54.72296 | -6.05196 | 6301 ft | 263 kts | 64° |
| 2026-04-30 06:28 | 54.73238 | -6.02477 | 6302 ft | 262 kts | 64° |
| 2026-04-30 06:28 | 54.74168 | -5.99793 | 6304 ft | 262 kts | 64° |
| 2026-04-30 06:28 | 54.75114 | -5.97060 | 6308 ft | 263 kts | 64° |
| 2026-04-30 06:28 | 54.76045 | -5.94366 | 6306 ft | 263 kts | 64° |
| 2026-04-30 06:29 | 54.76987 | -5.91640 | 6310 ft | 262 kts | 64° |
| 2026-04-30 06:29 | 54.77637 | -5.88787 | 6305 ft | 254 kts | 84° |
| 2026-04-30 06:29 | 54.77554 | -5.86056 | 6314 ft | 249 kts | 107° |
| 2026-04-30 06:29 | 54.76729 | -5.83476 | 6325 ft | 247 kts | 132° |
| 2026-04-30 06:30 | 54.75336 | -5.81808 | 6331 ft | 249 kts | 155° |
| 2026-04-30 06:30 | 54.73613 | -5.81368 | 6329 ft | 256 kts | 180° |
| 2026-04-30 06:30 | 54.71896 | -5.82328 | 6327 ft | 266 kts | 204° |
| 2026-04-30 06:30 | 54.70434 | -5.84343 | 6340 ft | 273 kts | 219° |
| 2026-04-30 06:31 | 54.69209 | -5.86881 | 6325 ft | 276 kts | 229° |
| 2026-04-30 06:31 | 54.68165 | -5.89648 | 6286 ft | 278 kts | 233° |
| 2026-04-30 06:31 | 54.67175 | -5.92524 | 6216 ft | 278 kts | 234° |
| 2026-04-30 06:31 | 54.66212 | -5.95423 | 6139 ft | 277 kts | 235° |
| 2026-04-30 06:32 | 54.65270 | -5.98291 | 6064 ft | 276 kts | 235° |
| 2026-04-30 06:32 | 54.64318 | -6.01198 | 5990 ft | 276 kts | 235° |
| 2026-04-30 06:32 | 54.63380 | -6.04066 | 5913 ft | 275 kts | 235° |
| 2026-04-30 06:32 | 54.62438 | -6.06949 | 5840 ft | 275 kts | 235° |
| 2026-04-30 06:33 | 54.61495 | -6.09831 | 5760 ft | 275 kts | 235° |
| 2026-04-30 06:33 | 54.60590 | -6.12700 | 5682 ft | 275 kts | 237° |
| 2026-04-30 06:33 | 54.59713 | -6.15653 | 5581 ft | 276 kts | 238° |
| 2026-04-30 06:33 | 54.58846 | -6.18629 | 5481 ft | 276 kts | 238° |
| 2026-04-30 06:34 | 54.57997 | -6.21559 | 5383 ft | 276 kts | 238° |
| 2026-04-30 06:34 | 54.57138 | -6.24531 | 5281 ft | 276 kts | 238° |
| 2026-04-30 06:34 | 54.56283 | -6.27499 | 5182 ft | 276 kts | 238° |
| 2026-04-30 06:34 | 54.55430 | -6.30465 | 5082 ft | 276 kts | 238° |
| 2026-04-30 06:35 | 54.54586 | -6.33396 | 4982 ft | 276 kts | 238° |
| 2026-04-30 06:35 | 54.53727 | -6.36375 | 4881 ft | 276 kts | 238° |
| 2026-04-30 06:35 | 54.52882 | -6.39314 | 4781 ft | 276 kts | 238° |
| 2026-04-30 06:35 | 54.52029 | -6.42284 | 4681 ft | 276 kts | 238° |
| 2026-04-30 06:36 | 54.51176 | -6.45252 | 4580 ft | 275 kts | 238° |
| 2026-04-30 06:36 | 54.50537 | -6.48350 | 4466 ft | 283 kts | 256° |
| 2026-04-30 06:36 | 54.50640 | -6.51770 | 4379 ft | 290 kts | 282° |
| 2026-04-30 06:36 | 54.51527 | -6.54891 | 4285 ft | 287 kts | 307° |
| 2026-04-30 06:37 | 54.52953 | -6.57004 | 4177 ft | 262 kts | 334° |
| 2026-04-30 06:37 | 54.54594 | -6.57775 | 4093 ft | 229 kts | 4° |
| 2026-04-30 06:37 | 54.56023 | -6.57197 | 3958 ft | 203 kts | 36° |
| 2026-04-30 06:37 | 54.56962 | -6.55582 | 3845 ft | 184 kts | 65° |
| 2026-04-30 06:38 | 54.57480 | -6.53598 | 3731 ft | 179 kts | 76° |
| 2026-04-30 06:38 | 54.57889 | -6.51591 | 3555 ft | 174 kts | 77° |
| 2026-04-30 06:38 | 54.58293 | -6.49697 | 3369 ft | 165 kts | 76° |
| 2026-04-30 06:38 | 54.58713 | -6.47899 | 3177 ft | 156 kts | 75° |
| 2026-04-30 06:39 | 54.59133 | -6.46219 | 2996 ft | 149 kts | 75° |
| 2026-04-30 06:39 | 54.59545 | -6.44630 | 2822 ft | 143 kts | 74° |
| 2026-04-30 06:39 | 54.59955 | -6.43080 | 2647 ft | 142 kts | 73° |
| 2026-04-30 06:39 | 54.60369 | -6.41522 | 2458 ft | 143 kts | 73° |
| 2026-04-30 06:40 | 54.60786 | -6.39963 | 2224 ft | 145 kts | 72° |
| 2026-04-30 06:40 | 54.61205 | -6.38419 | 2054 ft | 138 kts | 72° |
| 2026-04-30 06:40 | 54.61607 | -6.36943 | 1904 ft | 133 kts | 71° |
| 2026-04-30 06:40 | 54.62001 | -6.35487 | 1733 ft | 133 kts | 71° |
| 2026-04-30 06:41 | 54.62384 | -6.34066 | 1589 ft | 132 kts | 71° |
| 2026-04-30 06:41 | 54.62772 | -6.32611 | 1427 ft | 135 kts | 68° |
| 2026-04-30 06:41 | 54.63171 | -6.31125 | 1276 ft | 137 kts | 67° |
| 2026-04-30 06:41 | 54.63573 | -6.29647 | 1118 ft | 136 kts | 67° |
| 2026-04-30 06:42 | 54.63976 | -6.28161 | 923 ft | 135 kts | 66° |
| 2026-04-30 06:42 | 54.64368 | -6.26704 | 721 ft | 134 kts | 66° |
| 2026-04-30 06:42 | 54.64761 | -6.25244 | 523 ft | 132 kts | 65° |
| 2026-04-30 06:42 | 54.65143 | -6.23827 | 358 ft | 128 kts | 65° |
| 2026-04-30 06:43 | 54.65505 | -6.22484 | 277 ft | 120 kts | 65° |
| 2026-04-30 06:43 | 54.65781 | -6.21452 | 277 ft | 64 kts | 66° |
| 2026-04-30 06:43 | 54.65922 | -6.20927 | 277 ft | 39 kts | 65° |
| 2026-04-30 06:43 | 54.66017 | -6.20576 | 277 ft | 28 kts | 64° |
| 2026-04-30 06:44 | 54.66091 | -6.20302 | 277 ft | 23 kts | 65° |
| 2026-04-30 06:44 | 54.66158 | -6.20053 | 277 ft | 22 kts | 65° |
| 2026-04-30 06:44 | 54.66222 | -6.19816 | 277 ft | 21 kts | 65° |
| 2026-04-30 06:44 | 54.66284 | -6.19630 | 277 ft | 9 kts | 26° |
| 2026-04-30 06:45 | 54.66329 | -6.19648 | 277 ft | 7 kts | 336° |
| 2026-04-30 06:45 | 54.66376 | -6.19689 | 277 ft | 8 kts | 319° |
| 2026-04-30 06:45 | 54.66404 | -6.19784 | 277 ft | 10 kts | 274° |
| 2026-04-30 06:45 | 54.66382 | -6.19899 | 277 ft | 11 kts | 245° |
| 2026-04-30 06:46 | 54.66348 | -6.20027 | 277 ft | 13 kts | 245° |
| 2026-04-30 06:46 | 54.66310 | -6.20171 | 277 ft | 14 kts | 245° |
| 2026-04-30 06:46 | 54.66266 | -6.20334 | 277 ft | 16 kts | 245° |
| 2026-04-30 06:46 | 54.66219 | -6.20513 | 277 ft | 17 kts | 245° |
| 2026-04-30 06:47 | 54.66166 | -6.20707 | 277 ft | 18 kts | 245° |
| 2026-04-30 06:47 | 54.66110 | -6.20915 | 277 ft | 20 kts | 245° |
| 2026-04-30 06:47 | 54.66051 | -6.21139 | 277 ft | 21 kts | 245° |
| 2026-04-30 06:47 | 54.65987 | -6.21375 | 277 ft | 22 kts | 245° |
| 2026-04-30 06:48 | 54.65930 | -6.21589 | 277 ft | 13 kts | 245° |
| 2026-04-30 06:48 | 54.65896 | -6.21715 | 277 ft | 12 kts | 245° |
| 2026-04-30 06:48 | 54.65859 | -6.21851 | 277 ft | 13 kts | 245° |
| 2026-04-30 06:48 | 54.65851 | -6.21998 | 277 ft | 13 kts | 326° |
| 2026-04-30 06:49 | 54.65908 | -6.21955 | 277 ft | 9 kts | 66° |
| 2026-04-30 06:49 | 54.65925 | -6.21888 | 277 ft | 3 kts | 65° |
| 2026-04-30 06:49 | 54.65933 | -6.21859 | 277 ft | 2 kts | 65° |
| 2026-04-30 06:49 | 54.65934 | -6.21855 | 277 ft | 0 kts | 65° |